Time;durP1;ratioP1;P1;durP2;ratioP2;P2;SDS_P1;SDS_P2;PMS_P1;PMS_P2;Temp;Humidity;BMP_temperature;BMP_pressure;BME280_temperature;BME280_humidity;BME280_pressure;Samples;Min_cycle;Max_cycle;Signal;HPM_P1;HPM_P2
2023/06/01 00:02:03;;;;;;;5.82;2.53;;;12.20;99.90;;;;;;5003999;28;20116;-74
2023/06/01 00:04:29;;;;;;;8.25;2.92;;;12.20;99.90;;;;;;5003783;28;20042;-74
2023/06/01 00:06:54;;;;;;;9.48;2.92;;;12.20;99.90;;;;;;4985825;28;20076;-74
2023/06/01 00:09:20;;;;;;;7.20;3.33;;;12.20;99.90;;;;;;4985358;28;20046;-74
2023/06/01 00:11:46;;;;;;;5.15;2.58;;;12.10;99.90;;;;;;4985802;28;20676;-74
2023/06/01 00:14:11;;;;;;;7.47;2.72;;;12.20;99.90;;;;;;4985660;28;20092;-74
2023/06/01 00:16:37;;;;;;;4.18;2.00;;;12.20;99.90;;;;;;5004186;28;20385;-74
2023/06/01 00:19:03;;;;;;;6.70;2.88;;;12.10;99.90;;;;;;5003313;28;20045;-74
2023/06/01 00:21:31;;;;;;;7.68;2.38;;;12.10;99.90;;;;;;5003481;28;20479;-74
2023/06/01 00:23:57;;;;;;;10.27;2.65;;;12.10;99.90;;;;;;4984843;28;20100;-74
2023/06/01 00:26:22;;;;;;;7.60;2.78;;;12.10;99.90;;;;;;5003776;28;20528;-74
2023/06/01 00:28:48;;;;;;;9.57;1.92;;;12.10;99.90;;;;;;5003257;28;20056;-74
2023/06/01 00:31:14;;;;;;;4.88;2.55;;;12.10;99.90;;;;;;5003223;28;20038;-74
2023/06/01 00:33:39;;;;;;;8.73;1.70;;;12.10;99.90;;;;;;5003844;28;20042;-75
2023/06/01 00:36:05;;;;;;;3.45;2.10;;;12.10;99.90;;;;;;5003653;28;20073;-74
2023/06/01 00:38:31;;;;;;;2.42;1.98;;;12.10;99.90;;;;;;5002182;28;20073;-74
2023/06/01 00:40:56;;;;;;;2.65;1.90;;;12.10;99.90;;;;;;5003470;28;20049;-74
2023/06/01 00:43:22;;;;;;;6.00;2.50;;;12.10;99.90;;;;;;5003347;28;20049;-74
2023/06/01 00:45:48;;;;;;;4.32;1.70;;;12.00;99.90;;;;;;4997122;28;20046;-74
2023/06/01 00:48:15;;;;;;;4.10;1.63;;;12.10;99.90;;;;;;4983579;28;20064;-74
2023/06/01 00:50:41;;;;;;;6.95;1.70;;;12.00;99.90;;;;;;4983191;28;20799;-75
2023/06/01 00:53:10;;;;;;;2.20;1.73;;;12.00;99.90;;;;;;4993354;28;20045;-74
2023/06/01 00:55:36;;;;;;;5.03;2.58;;;12.00;99.90;;;;;;5003405;28;20115;-74
2023/06/01 00:58:02;;;;;;;4.10;2.13;;;12.00;99.90;;;;;;4985547;28;20489;-74
2023/06/01 01:00:29;;;;;;;7.43;1.83;;;12.00;99.90;;;;;;5002753;28;20867;-74
2023/06/01 01:02:56;;;;;;;4.95;2.75;;;12.00;99.90;;;;;;4985354;28;20456;-74
2023/06/01 01:05:26;;;;;;;5.20;2.47;;;12.00;99.90;;;;;;5002992;28;20041;-74
2023/06/01 01:08:03;;;;;;;8.10;2.92;;;12.00;99.90;;;;;;5003173;28;20049;-74
2023/06/01 01:11:09;;;;;;;3.15;2.42;;;12.00;99.90;;;;;;4984674;28;20050;-74
2023/06/01 01:13:51;;;;;;;4.75;2.22;;;12.00;99.90;;;;;;4958639;28;20061;-74
2023/06/01 01:16:28;;;;;;;4.35;2.45;;;11.90;99.90;;;;;;5003405;28;20049;-74
2023/06/01 01:19:24;;;;;;;5.60;2.38;;;11.90;99.90;;;;;;5002500;28;20446;-74
2023/06/01 01:22:07;;;;;;;5.65;3.00;;;11.90;99.90;;;;;;4984850;28;20053;-74
2023/06/01 01:25:10;;;;;;;7.43;2.72;;;11.90;99.90;;;;;;5002170;28;20707;-74
2023/06/01 01:27:39;;;;;;;4.95;2.20;;;11.90;99.90;;;;;;5005635;28;20128;-74
2023/06/01 01:30:07;;;;;;;6.38;3.15;;;11.90;99.90;;;;;;5006654;28;20050;-74
2023/06/01 01:32:35;;;;;;;5.13;2.53;;;11.90;99.90;;;;;;5006421;28;20049;-74
2023/06/01 01:35:02;;;;;;;3.85;2.67;;;11.90;99.90;;;;;;5006474;28;20046;-74
2023/06/01 01:37:27;;;;;;;7.90;2.70;;;11.90;99.90;;;;;;5006976;28;20045;-74
2023/06/01 01:39:53;;;;;;;6.60;3.17;;;11.90;99.90;;;;;;5004855;28;20500;-74
2023/06/01 01:42:19;;;;;;;11.27;2.88;;;11.90;99.90;;;;;;4989081;28;20049;-74
2023/06/01 01:44:45;;;;;;;4.75;2.80;;;11.90;99.90;;;;;;5005826;28;20120;-74
2023/06/01 01:47:36;;;;;;;7.63;2.30;;;11.80;99.90;;;;;;5006568;28;20500;-74
2023/06/01 01:50:09;;;;;;;4.95;1.85;;;11.80;99.90;;;;;;4988599;28;20067;-74
2023/06/01 01:52:41;;;;;;;3.65;2.33;;;11.80;99.90;;;;;;5006248;28;20396;-74
2023/06/01 01:55:11;;;;;;;4.25;1.90;;;11.90;99.90;;;;;;5005832;28;20046;-74
2023/06/01 01:57:37;;;;;;;6.40;2.25;;;11.90;99.90;;;;;;5006792;28;20046;-74
2023/06/01 02:00:06;;;;;;;6.05;2.60;;;11.90;99.90;;;;;;5005539;28;20112;-74
2023/06/01 02:02:31;;;;;;;6.78;3.25;;;11.90;99.90;;;;;;5006223;28;20054;-74
2023/06/01 02:04:57;;;;;;;8.60;3.00;;;11.90;99.90;;;;;;5005867;28;20050;-74
2023/06/01 02:07:23;;;;;;;3.60;2.08;;;11.90;99.90;;;;;;4987967;28;20042;-74
2023/06/01 02:09:48;;;;;;;5.60;2.45;;;11.90;99.90;;;;;;5004683;28;20054;-74
2023/06/01 02:12:14;;;;;;;13.77;3.60;;;11.90;99.90;;;;;;4988584;28;20042;-74
2023/06/01 02:14:40;;;;;;;3.55;2.65;;;11.90;99.90;;;;;;5005094;28;20054;-75
2023/06/01 02:17:07;;;;;;;7.93;2.80;;;11.90;99.90;;;;;;5005705;28;20046;-74
2023/06/01 02:19:33;;;;;;;4.43;2.45;;;11.90;99.90;;;;;;5005730;28;20060;-74
2023/06/01 02:21:58;;;;;;;4.07;1.70;;;11.80;99.90;;;;;;5005566;28;20073;-74
2023/06/01 02:24:24;;;;;;;4.13;2.25;;;11.80;99.90;;;;;;5004544;28;20602;-74
2023/06/01 02:26:53;;;;;;;5.70;2.65;;;11.80;99.90;;;;;;5005452;28;20046;-74
2023/06/01 02:29:22;;;;;;;4.97;1.85;;;11.90;99.90;;;;;;4988167;28;20054;-74
2023/06/01 02:31:49;;;;;;;5.55;2.65;;;11.80;99.90;;;;;;4987323;28;20049;-75
2023/06/01 02:34:15;;;;;;;7.35;2.22;;;11.80;99.90;;;;;;5005639;28;20056;-74
2023/06/01 02:36:40;;;;;;;7.38;2.05;;;11.80;99.90;;;;;;5004858;28;20529;-75
2023/06/01 02:39:06;;;;;;;4.63;2.15;;;11.80;99.90;;;;;;4986041;28;20053;-74
2023/06/01 02:41:31;;;;;;;3.25;2.10;;;11.80;99.90;;;;;;5005164;28;20137;-74
2023/06/01 02:43:57;;;;;;;6.25;1.88;;;11.80;99.90;;;;;;5005256;28;20085;-74
2023/06/01 02:46:23;;;;;;;5.20;2.35;;;11.80;99.90;;;;;;4994586;28;20042;-74
2023/06/01 02:48:48;;;;;;;6.10;2.22;;;11.80;99.90;;;;;;4985077;28;20101;-74
2023/06/01 02:51:14;;;;;;;6.22;2.10;;;11.80;99.90;;;;;;4985666;28;20097;-75
2023/06/01 02:53:40;;;;;;;3.92;1.60;;;11.80;99.90;;;;;;4984664;28;20046;-74
2023/06/01 02:56:06;;;;;;;3.70;1.88;;;11.80;99.90;;;;;;4997690;28;20050;-74
2023/06/01 02:58:32;;;;;;;4.00;2.85;;;11.80;99.90;;;;;;4987653;28;20068;-74
2023/06/01 03:00:57;;;;;;;5.47;2.92;;;11.80;99.90;;;;;;5004483;28;20547;-74
2023/06/01 03:03:24;;;;;;;9.77;2.70;;;11.90;99.90;;;;;;5004998;28;20050;-74
2023/06/01 03:05:51;;;;;;;6.25;2.42;;;11.90;99.90;;;;;;5004367;28;20038;-74
2023/06/01 03:08:16;;;;;;;4.43;1.38;;;11.80;99.90;;;;;;5003959;28;20041;-75
2023/06/01 03:10:43;;;;;;;6.47;1.63;;;11.90;99.90;;;;;;4987097;28;20124;-75
2023/06/01 03:13:08;;;;;;;3.15;2.08;;;11.90;99.90;;;;;;4987410;28;20678;-74
2023/06/01 03:15:34;;;;;;;2.83;1.38;;;11.90;99.90;;;;;;5004819;28;20129;-74
2023/06/01 03:18:01;;;;;;;2.78;2.00;;;11.90;99.90;;;;;;4970427;28;20132;-74
2023/06/01 03:20:26;;;;;;;4.97;1.80;;;11.90;99.90;;;;;;4986615;28;20046;-74
2023/06/01 03:22:52;;;;;;;4.55;1.70;;;11.80;99.90;;;;;;5003780;28;20045;-74
2023/06/01 03:25:18;;;;;;;4.38;2.45;;;11.80;99.90;;;;;;5004962;28;20034;-74
2023/06/01 03:27:43;;;;;;;6.93;1.60;;;11.90;99.90;;;;;;5004560;28;20057;-74
2023/06/01 03:30:10;;;;;;;4.30;1.63;;;11.80;99.90;;;;;;5004740;28;20042;-74
2023/06/01 03:32:40;;;;;;;2.92;1.70;;;11.80;99.90;;;;;;5004391;28;20575;-74
2023/06/01 03:35:07;;;;;;;3.42;1.65;;;11.80;99.90;;;;;;5004849;28;20050;-74
2023/06/01 03:37:38;;;;;;;3.42;1.67;;;11.80;99.90;;;;;;4986767;28;20716;-74
2023/06/01 03:40:13;;;;;;;3.42;1.60;;;11.80;99.90;;;;;;5003059;28;20042;-74
2023/06/01 03:42:42;;;;;;;2.13;1.30;;;11.80;99.90;;;;;;4986761;28;20050;-74
2023/06/01 03:45:08;;;;;;;4.78;1.98;;;11.80;99.90;;;;;;5004932;28;20041;-74
2023/06/01 03:47:34;;;;;;;4.20;1.40;;;11.80;99.90;;;;;;5003852;28;20053;-73
2023/06/01 03:50:03;;;;;;;3.17;1.52;;;11.80;99.90;;;;;;5002932;28;20593;-74
2023/06/01 03:52:29;;;;;;;3.10;2.00;;;11.80;99.90;;;;;;5004151;28;20238;-74
2023/06/01 03:54:56;;;;;;;2.03;1.10;;;11.80;99.90;;;;;;5002856;28;20121;-74
2023/06/01 03:57:22;;;;;;;4.53;1.42;;;11.80;99.90;;;;;;5004432;28;20129;-74
2023/06/01 03:59:48;;;;;;;3.85;1.30;;;11.80;99.90;;;;;;5003406;28;20057;-74
2023/06/01 04:02:14;;;;;;;2.92;1.88;;;11.80;99.90;;;;;;5003730;28;20508;-74
2023/06/01 04:04:40;;;;;;;3.45;1.40;;;11.80;99.90;;;;;;5003997;28;20120;-75
2023/06/01 04:07:06;;;;;;;3.30;1.30;;;11.80;99.90;;;;;;5004174;28;20045;-74
2023/06/01 04:09:32;;;;;;;2.83;1.38;;;11.80;99.90;;;;;;5003094;28;20046;-74
2023/06/01 04:11:58;;;;;;;1.95;1.40;;;11.80;99.90;;;;;;5003070;28;20034;-74
2023/06/01 04:14:24;;;;;;;4.60;1.27;;;11.80;99.90;;;;;;5003683;28;20050;-74
2023/06/01 04:16:49;;;;;;;2.80;2.05;;;11.80;99.90;;;;;;4986079;28;20487;-74
2023/06/01 04:19:15;;;;;;;3.20;1.15;;;11.80;99.90;;;;;;5003362;28;20053;-74
2023/06/01 04:21:41;;;;;;;3.75;1.35;;;11.80;99.90;;;;;;4985779;28;20492;-75
2023/06/01 04:24:06;;;;;;;6.90;1.50;;;11.80;99.90;;;;;;5002841;28;20407;-74
2023/06/01 04:26:32;;;;;;;3.13;1.88;;;11.80;99.90;;;;;;5019057;28;20128;-74
2023/06/01 04:28:58;;;;;;;2.22;1.40;;;11.80;99.90;;;;;;5003372;28;20048;-74
2023/06/01 04:31:24;;;;;;;6.55;2.22;;;11.80;99.90;;;;;;5002966;28;20438;-74
2023/06/01 04:33:53;;;;;;;3.75;1.35;;;11.80;99.90;;;;;;5003318;28;20037;-74
2023/06/01 04:36:29;;;;;;;1.73;1.33;;;11.80;99.90;;;;;;5003360;28;20042;-74
2023/06/01 04:38:54;;;;;;;3.03;1.92;;;11.80;99.90;;;;;;5001902;28;20608;-74
2023/06/01 04:41:24;;;;;;;2.55;1.52;;;11.80;99.90;;;;;;4969335;28;20091;-74
2023/06/01 04:43:53;;;;;;;3.10;1.58;;;11.80;99.90;;;;;;4968576;28;20077;-74
2023/06/01 04:46:24;;;;;;;7.68;1.75;;;11.80;99.90;;;;;;5003243;28;20042;-74
2023/06/01 04:48:55;;;;;;;5.60;1.75;;;11.80;99.90;;;;;;5002937;28;20041;-74
2023/06/01 04:51:21;;;;;;;4.68;1.35;;;11.80;99.90;;;;;;5003153;28;20046;-73
2023/06/01 04:53:51;;;;;;;4.28;1.52;;;11.80;99.90;;;;;;5002005;28;20046;-73
2023/06/01 04:56:26;;;;;;;1.83;1.52;;;11.80;99.90;;;;;;5003182;28;20141;-73
2023/06/01 04:58:53;;;;;;;3.05;1.27;;;11.80;99.90;;;;;;5002362;28;20050;-72
2023/06/01 05:01:18;;;;;;;2.40;1.40;;;11.80;99.90;;;;;;5003568;28;20479;-72
2023/06/01 05:03:45;;;;;;;3.42;1.67;;;11.80;99.90;;;;;;5007109;28;20050;-73
2023/06/01 05:06:12;;;;;;;2.53;1.52;;;11.80;99.90;;;;;;5007105;28;20556;-73
2023/06/01 05:08:41;;;;;;;4.18;1.20;;;11.80;99.90;;;;;;5006110;28;20049;-72
2023/06/01 05:11:08;;;;;;;1.77;1.10;;;11.80;99.90;;;;;;5006961;28;20120;-72
2023/06/01 05:13:35;;;;;;;2.92;1.13;;;11.80;99.90;;;;;;5007359;28;20132;-71
2023/06/01 05:16:01;;;;;;;1.67;1.38;;;11.80;99.90;;;;;;5004502;28;20038;-72
2023/06/01 05:18:27;;;;;;;3.53;1.20;;;11.80;99.90;;;;;;5003524;28;20042;-72
2023/06/01 05:20:53;;;;;;;7.30;2.80;;;11.80;99.90;;;;;;4980241;28;20051;-72
2023/06/01 05:23:18;;;;;;;4.78;1.75;;;11.90;99.90;;;;;;5005104;28;20037;-71
2023/06/01 05:25:44;;;;;;;3.90;1.63;;;11.90;99.90;;;;;;5005668;28;20172;-72
2023/06/01 05:28:10;;;;;;;5.32;1.95;;;11.90;99.90;;;;;;5006968;28;20045;-74
2023/06/01 05:30:35;;;;;;;2.55;1.13;;;11.90;99.90;;;;;;5005339;28;20046;-70
2023/06/01 05:33:01;;;;;;;5.05;2.67;;;11.90;99.90;;;;;;5007861;28;20038;-71
2023/06/01 05:35:27;;;;;;;3.67;2.05;;;12.00;99.90;;;;;;5005931;28;20045;-73
2023/06/01 05:37:52;;;;;;;3.08;1.52;;;12.00;99.90;;;;;;5004406;28;20476;-71
2023/06/01 05:40:19;;;;;;;2.97;1.33;;;12.00;99.90;;;;;;5004055;28;20558;-71
2023/06/01 05:42:44;;;;;;;7.45;1.38;;;12.00;99.90;;;;;;5004772;28;20160;-72
2023/06/01 05:45:10;;;;;;;3.80;1.52;;;12.00;99.90;;;;;;5005230;28;20049;-73
2023/06/01 05:47:36;;;;;;;3.38;1.70;;;12.00;99.90;;;;;;5004009;28;20034;-73
2023/06/01 05:50:01;;;;;;;2.60;1.50;;;12.00;99.90;;;;;;5004923;28;20506;-70
2023/06/01 05:52:27;;;;;;;4.22;1.48;;;12.00;99.90;;;;;;5003444;28;20042;-71
2023/06/01 05:54:53;;;;;;;3.17;1.08;;;12.00;99.90;;;;;;5005248;28;20038;-71
2023/06/01 05:57:20;;;;;;;3.55;1.52;;;12.00;99.90;;;;;;5005549;28;20042;-73
2023/06/01 05:59:46;;;;;;;2.60;1.20;;;12.00;99.90;;;;;;5005027;28;20749;-74
2023/06/01 06:02:12;;;;;;;7.47;1.35;;;12.00;99.90;;;;;;5005325;28;20038;-75
2023/06/01 06:04:38;;;;;;;2.10;1.35;;;12.00;99.90;;;;;;5001608;28;20530;-76
2023/06/01 06:07:04;;;;;;;5.28;1.27;;;12.00;99.90;;;;;;4998258;28;20045;-75
2023/06/01 06:09:30;;;;;;;7.03;1.38;;;12.00;99.90;;;;;;4987774;28;20096;-74
2023/06/01 06:11:56;;;;;;;5.13;1.65;;;12.00;99.90;;;;;;5001442;28;20050;-74
2023/06/01 06:14:22;;;;;;;3.63;1.33;;;12.10;99.90;;;;;;5005840;28;20068;-75
2023/06/01 06:16:47;;;;;;;5.03;2.17;;;12.10;99.90;;;;;;4987685;28;20050;-74
2023/06/01 06:19:15;;;;;;;7.55;1.95;;;12.10;99.90;;;;;;5006041;28;20038;-74
2023/06/01 06:21:41;;;;;;;5.88;1.42;;;12.10;99.90;;;;;;4985872;28;20121;-75
2023/06/01 06:24:07;;;;;;;3.00;1.63;;;12.10;99.90;;;;;;4987442;28;20129;-75
2023/06/01 06:26:32;;;;;;;3.42;1.90;;;12.20;99.90;;;;;;4988020;28;20046;-74
2023/06/01 06:28:58;;;;;;;2.10;1.15;;;12.20;99.90;;;;;;5003788;28;20038;-74
2023/06/01 06:31:24;;;;;;;2.33;1.35;;;12.20;99.90;;;;;;5005164;28;20042;-73
2023/06/01 06:33:49;;;;;;;1.75;1.08;;;12.20;99.90;;;;;;4986915;28;20052;-73
2023/06/01 06:36:16;;;;;;;3.80;1.48;;;12.20;99.90;;;;;;4987233;28;20046;-73
2023/06/01 06:38:42;;;;;;;1.80;1.33;;;12.20;99.90;;;;;;5002804;28;20497;-73
2023/06/01 06:41:07;;;;;;;3.67;1.10;;;12.20;99.90;;;;;;4987285;28;20045;-73
2023/06/01 06:43:34;;;;;;;1.70;1.02;;;12.20;99.90;;;;;;4986541;28;20263;-73
2023/06/01 06:45:59;;;;;;;2.65;1.00;;;12.20;99.90;;;;;;5004239;28;20152;-73
2023/06/01 06:48:25;;;;;;;3.42;0.90;;;12.20;99.90;;;;;;5003419;28;20588;-73
2023/06/01 06:50:51;;;;;;;4.30;1.00;;;12.20;99.90;;;;;;4983078;28;20085;-73
2023/06/01 06:53:17;;;;;;;2.08;1.23;;;12.30;99.90;;;;;;4995839;28;20512;-73
2023/06/01 06:55:44;;;;;;;1.38;1.10;;;12.20;99.90;;;;;;5002492;28;20050;-73
2023/06/01 06:58:10;;;;;;;1.10;0.85;;;12.20;99.90;;;;;;5002167;28;20500;-75
2023/06/01 07:00:36;;;;;;;4.72;1.20;;;12.20;99.90;;;;;;4996594;28;20080;-74
2023/06/01 07:03:03;;;;;;;3.00;0.93;;;12.20;99.90;;;;;;4989624;28;20085;-74
2023/06/01 07:05:28;;;;;;;2.22;0.70;;;12.30;99.90;;;;;;4993052;28;20049;-74
2023/06/01 07:07:54;;;;;;;1.98;1.10;;;12.30;99.90;;;;;;4985203;28;20087;-73
2023/06/01 07:10:21;;;;;;;1.15;0.90;;;12.30;99.90;;;;;;5003936;28;20056;-74
2023/06/01 07:12:47;;;;;;;2.22;0.85;;;12.30;99.90;;;;;;4981692;28;20137;-73
2023/06/01 07:15:13;;;;;;;2.47;1.08;;;12.30;99.90;;;;;;4983543;28;20045;-73
2023/06/01 07:17:38;;;;;;;1.40;0.90;;;12.30;99.90;;;;;;4981227;28;20516;-74
2023/06/01 07:20:06;;;;;;;1.25;0.88;;;12.40;99.90;;;;;;4949697;28;20042;-72
2023/06/01 07:22:35;;;;;;;1.50;0.82;;;12.40;99.90;;;;;;4980778;28;20335;-73
2023/06/01 07:25:00;;;;;;;0.98;0.75;;;12.40;99.90;;;;;;4982442;28;20125;-73
2023/06/01 07:27:26;;;;;;;3.70;0.90;;;12.40;99.90;;;;;;4966099;28;20145;-73
2023/06/01 07:29:55;;;;;;;1.25;0.90;;;12.40;99.90;;;;;;4983140;28;20056;-73
2023/06/01 07:32:24;;;;;;;2.03;1.05;;;12.40;99.90;;;;;;4984253;28;20054;-73
2023/06/01 07:34:50;;;;;;;2.22;0.93;;;12.40;99.90;;;;;;4998105;28;20047;-72
2023/06/01 07:37:16;;;;;;;1.25;1.13;;;12.40;99.90;;;;;;4982559;28;20034;-73
2023/06/01 07:39:41;;;;;;;1.60;0.90;;;12.40;99.90;;;;;;4965735;28;20066;-73
2023/06/01 07:42:07;;;;;;;6.10;0.90;;;12.40;99.90;;;;;;4984105;28;20038;-72
2023/06/01 07:44:33;;;;;;;2.78;1.30;;;12.40;99.90;;;;;;4983180;28;20104;-73
2023/06/01 07:46:58;;;;;;;0.93;0.65;;;12.30;99.90;;;;;;4998410;28;20061;-72
2023/06/01 07:49:24;;;;;;;1.15;0.65;;;12.40;99.90;;;;;;5003217;28;20040;-72
2023/06/01 07:51:51;;;;;;;1.25;0.60;;;12.40;99.90;;;;;;4984408;28;20096;-73
2023/06/01 07:54:17;;;;;;;2.80;0.82;;;12.40;99.90;;;;;;5002358;28;20069;-73
2023/06/01 07:56:43;;;;;;;0.95;0.77;;;12.30;99.90;;;;;;5002450;28;20042;-72
2023/06/01 07:59:09;;;;;;;1.98;0.90;;;12.30;99.90;;;;;;5002825;28;20447;-74
2023/06/01 08:01:34;;;;;;;2.58;0.90;;;12.30;99.90;;;;;;5002937;28;20104;-73
2023/06/01 08:04:01;;;;;;;3.83;0.82;;;12.30;99.90;;;;;;5002667;28;20117;-73
2023/06/01 08:06:27;;;;;;;3.45;1.23;;;12.40;99.90;;;;;;5002864;28;20042;-72
2023/06/01 08:08:53;;;;;;;12.93;1.58;;;12.40;99.90;;;;;;5001123;28;20454;-73
2023/06/01 08:11:18;;;;;;;5.10;1.40;;;12.40;99.90;;;;;;4985513;28;20068;-73
2023/06/01 08:13:47;;;;;;;3.03;0.90;;;12.40;99.90;;;;;;4967768;28;20045;-73
2023/06/01 08:16:13;;;;;;;5.30;1.23;;;12.40;99.90;;;;;;5003008;28;20597;-73
2023/06/01 08:18:39;;;;;;;3.65;1.05;;;12.40;99.90;;;;;;5002361;28;20046;-73
2023/06/01 08:21:05;;;;;;;3.80;1.15;;;12.30;99.90;;;;;;5002546;28;20037;-73
2023/06/01 08:23:31;;;;;;;4.07;1.27;;;12.40;99.90;;;;;;4983997;28;20065;-72
2023/06/01 08:25:56;;;;;;;4.93;1.45;;;12.40;99.90;;;;;;5001948;28;20048;-73
2023/06/01 08:28:22;;;;;;;8.52;1.33;;;12.40;99.90;;;;;;5002595;28;20045;-72
2023/06/01 08:30:48;;;;;;;3.63;1.70;;;12.40;99.90;;;;;;5001570;28;20129;-73
2023/06/01 08:33:15;;;;;;;5.53;2.53;;;12.40;99.90;;;;;;5002775;28;20453;-72
2023/06/01 08:35:40;;;;;;;2.20;0.95;;;12.50;99.90;;;;;;5001586;28;20046;-73
2023/06/01 08:38:06;;;;;;;5.82;1.27;;;12.50;99.90;;;;;;5016979;28;20048;-73
2023/06/01 08:40:32;;;;;;;5.63;1.80;;;12.50;99.90;;;;;;5017252;28;20400;-72
2023/06/01 08:43:09;;;;;;;2.47;1.00;;;12.50;99.90;;;;;;5002128;28;20457;-73
2023/06/01 08:45:37;;;;;;;6.75;2.13;;;12.50;99.90;;;;;;4984303;28;20045;-73
2023/06/01 08:48:08;;;;;;;3.00;1.42;;;12.60;99.90;;;;;;5002172;28;20056;-73
2023/06/01 08:50:34;;;;;;;3.72;1.80;;;12.50;99.90;;;;;;5002322;28;20080;-72
2023/06/01 08:53:01;;;;;;;2.72;0.85;;;12.60;99.90;;;;;;5000584;28;20088;-73
2023/06/01 08:55:26;;;;;;;3.67;1.27;;;12.60;99.90;;;;;;5002092;28;20054;-73
2023/06/01 08:57:53;;;;;;;4.97;2.13;;;12.60;99.90;;;;;;5001463;28;20595;-72
2023/06/01 09:00:20;;;;;;;2.30;1.20;;;12.60;99.90;;;;;;4982378;28;20042;-75
2023/06/01 09:02:46;;;;;;;2.70;1.20;;;12.60;99.90;;;;;;5004377;28;20057;-75
2023/06/01 09:05:13;;;;;;;6.55;2.00;;;12.70;99.90;;;;;;5002550;28;20046;-75
2023/06/01 09:07:39;;;;;;;5.40;1.83;;;12.60;99.90;;;;;;4985185;28;20049;-72
2023/06/01 09:10:06;;;;;;;3.90;1.48;;;12.70;99.90;;;;;;4996821;28;20041;-72
2023/06/01 09:12:34;;;;;;;6.47;1.20;;;12.70;99.90;;;;;;4969311;28;20497;-74
2023/06/01 09:15:06;;;;;;;3.03;1.30;;;12.70;99.90;;;;;;5004468;28;20053;-72
2023/06/01 09:17:32;;;;;;;4.68;1.90;;;12.80;99.90;;;;;;4994261;28;20057;-72
2023/06/01 09:19:58;;;;;;;1.55;1.08;;;12.80;99.90;;;;;;4978970;28;20052;-73
2023/06/01 09:22:24;;;;;;;4.53;0.93;;;12.80;99.90;;;;;;4983398;28;20050;-72
2023/06/01 09:24:59;;;;;;;4.78;1.17;;;12.80;99.90;;;;;;5016116;28;20042;-72
2023/06/01 09:27:27;;;;;;;10.32;1.23;;;12.70;99.90;;;;;;5001690;28;20046;-72
2023/06/01 09:29:59;;;;;;;2.08;1.20;;;12.80;99.90;;;;;;4984164;28;20073;-72
2023/06/01 09:32:25;;;;;;;2.45;0.95;;;12.80;99.90;;;;;;5002182;28;20054;-72
2023/06/01 09:34:50;;;;;;;2.10;1.15;;;12.80;99.90;;;;;;4988415;28;20049;-73
2023/06/01 09:37:16;;;;;;;3.67;1.08;;;12.80;99.90;;;;;;5001484;28;20042;-72
2023/06/01 09:39:43;;;;;;;2.35;1.33;;;12.90;99.90;;;;;;5000445;28;20088;-73
2023/06/01 09:42:09;;;;;;;2.65;1.13;;;12.90;99.90;;;;;;5002116;28;20049;-73
2023/06/01 09:44:40;;;;;;;2.40;1.42;;;12.90;99.90;;;;;;5002423;28;20457;-73
2023/06/01 09:47:09;;;;;;;4.63;1.40;;;13.00;99.90;;;;;;5001826;28;20100;-73
2023/06/01 09:49:37;;;;;;;1.80;1.40;;;13.00;99.90;;;;;;4985620;28;20042;-71
2023/06/01 09:52:06;;;;;;;3.75;1.88;;;13.00;99.90;;;;;;5004632;28;20654;-71
2023/06/01 09:54:38;;;;;;;4.97;1.30;;;12.90;99.90;;;;;;4987484;28;20053;-71
2023/06/01 09:57:04;;;;;;;;;;;12.90;99.90;;;;;;5005477;28;20544;-72
2023/06/01 09:59:44;;;;;;;3.63;1.30;;;12.90;99.90;;;;;;4987897;28;19928;-72
2023/06/01 10:02:12;;;;;;;1.85;1.30;;;12.90;99.90;;;;;;4986652;28;20037;-74
2023/06/01 10:04:41;;;;;;;4.60;1.70;;;12.90;99.90;;;;;;5005520;28;20488;-72
2023/06/01 10:07:08;;;;;;;4.78;1.25;;;12.90;99.90;;;;;;5004468;28;20038;-71
2023/06/01 10:09:35;;;;;;;2.35;0.93;;;12.90;99.90;;;;;;4986188;28;20497;-72
2023/06/01 10:12:01;;;;;;;2.17;1.35;;;12.90;99.90;;;;;;5005304;28;20053;-73
2023/06/01 10:14:27;;;;;;;5.10;1.30;;;13.00;99.90;;;;;;5006047;28;20116;-71
2023/06/01 10:16:53;;;;;;;4.07;1.50;;;13.00;99.90;;;;;;5012821;28;20529;-72
2023/06/01 10:19:21;;;;;;;5.63;1.30;;;13.00;99.90;;;;;;5004265;28;20076;-72
2023/06/01 10:21:47;;;;;;;3.75;1.80;;;13.00;99.90;;;;;;5003984;28;20038;-72
2023/06/01 10:24:19;;;;;;;8.27;1.10;;;13.00;99.90;;;;;;5001596;28;20060;-72
2023/06/01 10:27:01;;;;;;;2.22;0.95;;;13.00;99.90;;;;;;5003969;28;20455;-72
2023/06/01 10:29:28;;;;;;;2.10;1.63;;;13.10;99.90;;;;;;5004499;28;20049;-72
2023/06/01 10:31:55;;;;;;;4.05;1.20;;;13.10;99.90;;;;;;5003799;28;20108;-74
2023/06/01 10:34:44;;;;;;;4.25;1.63;;;13.10;99.90;;;;;;5019322;28;20398;-72
2023/06/01 10:37:10;;;;;;;8.68;1.13;;;13.10;99.90;;;;;;4978283;28;20037;-73
2023/06/01 10:39:36;;;;;;;2.15;1.48;;;13.10;99.90;;;;;;4987676;28;20463;-72
2023/06/01 10:42:14;;;;;;;2.17;0.90;;;13.10;99.90;;;;;;4986262;28;20041;-72
2023/06/01 10:44:42;;;;;;;5.72;1.73;;;13.20;99.90;;;;;;5004628;28;20050;-74
2023/06/01 10:47:10;;;;;;;8.18;1.80;;;13.20;99.90;;;;;;4971648;28;20125;-73
2023/06/01 10:49:48;;;;;;;4.10;1.25;;;13.20;99.90;;;;;;4987536;28;20085;-72
2023/06/01 10:52:27;;;;;;;2.08;1.27;;;13.30;99.90;;;;;;4985436;28;20046;-72
2023/06/01 10:54:54;;;;;;;3.85;1.25;;;13.30;99.90;;;;;;4986459;28;20523;-72
2023/06/01 10:57:25;;;;;;;6.18;1.83;;;13.40;99.90;;;;;;5004043;28;20034;-73
2023/06/01 11:00:29;;;;;;;5.28;1.63;;;13.40;99.90;;;;;;5003151;28;20045;-72
2023/06/01 11:02:56;;;;;;;5.43;1.73;;;13.40;99.90;;;;;;4992086;28;20115;-72
2023/06/01 11:05:35;;;;;;;2.00;1.20;;;13.40;99.90;;;;;;4984816;28;20081;-73
2023/06/01 11:08:01;;;;;;;1.38;1.10;;;13.30;99.90;;;;;;4984002;28;20072;-72
2023/06/01 11:11:06;;;;;;;2.75;1.17;;;13.40;99.90;;;;;;5003140;28;20045;-73
2023/06/01 11:13:34;;;;;;;1.95;1.15;;;13.40;99.90;;;;;;5015196;28;20443;-72
2023/06/01 11:16:21;;;;;;;3.95;1.33;;;13.40;99.90;;;;;;4985620;28;20077;-72
2023/06/01 11:18:49;;;;;;;2.60;1.52;;;13.40;99.90;;;;;;4993021;28;20034;-73
2023/06/01 11:21:29;;;;;;;5.30;1.60;;;13.40;99.90;;;;;;4985867;28;20045;-72
2023/06/01 11:23:58;;;;;;;12.35;1.58;;;13.40;99.90;;;;;;4984667;28;20046;-71
2023/06/01 11:26:38;;;;;;;3.50;1.08;;;13.40;99.90;;;;;;4984549;28;20052;-72
2023/06/01 11:29:06;;;;;;;2.47;0.95;;;13.40;99.90;;;;;;4985216;28;20038;-71
2023/06/01 11:31:37;;;;;;;1.92;0.90;;;13.40;99.90;;;;;;5003220;28;20393;-72
2023/06/01 11:34:03;;;;;;;1.58;0.90;;;13.50;99.90;;;;;;4985469;28;20057;-73
2023/06/01 11:36:29;;;;;;;4.20;1.30;;;13.50;99.90;;;;;;5002896;28;20045;-71
2023/06/01 11:38:55;;;;;;;1.27;0.65;;;13.50;99.90;;;;;;5002741;28;20497;-72
2023/06/01 11:41:23;;;;;;;2.17;1.00;;;13.60;99.90;;;;;;5002552;28;20029;-71
2023/06/01 11:43:58;;;;;;;2.78;0.93;;;13.60;99.90;;;;;;4985221;28;20053;-71
2023/06/01 11:46:26;;;;;;;2.65;0.80;;;13.50;99.90;;;;;;5003613;28;20053;-72
2023/06/01 11:49:05;;;;;;;1.30;0.93;;;13.50;99.90;;;;;;5011614;28;20053;-72
2023/06/01 11:51:38;;;;;;;1.23;0.80;;;13.50;99.90;;;;;;5018188;28;20053;-73
2023/06/01 11:54:05;;;;;;;1.50;0.80;;;13.60;99.90;;;;;;5003121;28;20037;-71
2023/06/01 11:56:31;;;;;;;1.52;1.02;;;13.50;99.90;;;;;;4995426;28;20628;-72
2023/06/01 11:58:58;;;;;;;5.30;1.63;;;13.60;99.90;;;;;;4985502;28;20054;-71
2023/06/01 12:01:24;;;;;;;2.80;1.52;;;13.60;99.90;;;;;;4983864;28;20049;-71
2023/06/01 12:03:50;;;;;;;3.33;1.45;;;13.60;99.90;;;;;;4985299;28;20042;-72
2023/06/01 12:06:23;;;;;;;3.90;1.27;;;13.60;99.90;;;;;;4969050;28;20663;-70
2023/06/01 12:08:54;;;;;;;0.80;0.80;;;13.60;99.90;;;;;;5001468;28;20551;-71
2023/06/01 12:11:27;;;;;;;5.20;1.17;;;13.60;99.90;;;;;;5001170;28;20045;-74
2023/06/01 12:13:56;;;;;;;2.65;0.95;;;13.60;99.90;;;;;;4984951;28;20041;-74
2023/06/01 12:16:22;;;;;;;4.82;1.00;;;13.60;99.90;;;;;;5002959;28;20116;-72
2023/06/01 12:18:48;;;;;;;1.15;1.00;;;13.60;99.90;;;;;;5001647;28;20042;-72
2023/06/01 12:21:16;;;;;;;5.65;1.40;;;13.70;99.90;;;;;;5002719;28;20050;-73
2023/06/01 12:23:42;;;;;;;3.30;1.00;;;13.70;99.90;;;;;;5001911;28;20046;-73
2023/06/01 12:26:08;;;;;;;3.08;0.88;;;13.70;99.90;;;;;;5002159;28;20087;-74
2023/06/01 12:28:53;;;;;;;9.52;1.33;;;13.70;99.90;;;;;;5017462;28;20124;-72
2023/06/01 12:31:19;;;;;;;2.60;1.00;;;13.70;99.90;;;;;;5001733;28;20508;-72
2023/06/01 12:33:45;;;;;;;1.50;1.00;;;13.70;99.90;;;;;;4984553;28;20108;-74
2023/06/01 12:36:29;;;;;;;2.10;1.20;;;13.70;99.90;;;;;;5017883;28;20417;-72
2023/06/01 12:38:54;;;;;;;2.45;1.40;;;13.70;99.90;;;;;;4983865;28;20377;-73
2023/06/01 12:41:21;;;;;;;2.58;1.08;;;13.70;99.90;;;;;;5002179;28;20432;-73
2023/06/01 12:43:50;;;;;;;3.80;1.63;;;13.70;99.90;;;;;;5001098;28;20037;-74
2023/06/01 12:46:23;;;;;;;6.80;1.50;;;13.70;99.90;;;;;;4985135;28;20042;-73
2023/06/01 12:48:50;;;;;;;2.85;1.60;;;13.70;99.90;;;;;;5002126;28;20038;-74
2023/06/01 12:51:16;;;;;;;3.72;1.00;;;13.70;99.90;;;;;;5000858;28;20034;-72
2023/06/01 12:53:42;;;;;;;3.17;1.63;;;13.70;99.90;;;;;;4983901;28;20049;-73